地図

経路データ

SID SEASON NUMBER BASIN SUBBASIN NAME ISO_TIME NATURE LAT LON WMO_WIND WMO_PRES WMO_AGENCY TRACK_TYPE DIST2LAND LANDFALL IFLAG USA_AGENCY USA_ATCF_ID USA_LAT USA_LON USA_RECORD USA_STATUS USA_WIND USA_PRES USA_SSHS USA_R34_NE USA_R34_SE USA_R34_SW USA_R34_NW USA_R50_NE USA_R50_SE USA_R50_SW USA_R50_NW USA_R64_NE USA_R64_SE USA_R64_SW USA_R64_NW USA_POCI USA_ROCI USA_RMW USA_EYE TOKYO_LAT TOKYO_LON TOKYO_GRADE TOKYO_WIND TOKYO_PRES TOKYO_R50_DIR TOKYO_R50_LONG TOKYO_R50_SHORT TOKYO_R30_DIR TOKYO_R30_LONG TOKYO_R30_SHORT TOKYO_LAND CMA_LAT CMA_LON CMA_CAT CMA_WIND CMA_PRES HKO_LAT HKO_LON HKO_CAT HKO_WIND HKO_PRES NEWDELHI_LAT NEWDELHI_LON NEWDELHI_GRADE NEWDELHI_WIND NEWDELHI_PRES NEWDELHI_CI NEWDELHI_DP NEWDELHI_POCI REUNION_LAT REUNION_LON REUNION_TYPE REUNION_WIND REUNION_PRES REUNION_TNUM REUNION_CI REUNION_RMW REUNION_R34_NE REUNION_R34_SE REUNION_R34_SW REUNION_R34_NW REUNION_R50_NE REUNION_R50_SE REUNION_R50_SW REUNION_R50_NW REUNION_R64_NE REUNION_R64_SE REUNION_R64_SW REUNION_R64_NW BOM_LAT BOM_LON BOM_TYPE BOM_WIND BOM_PRES BOM_TNUM BOM_CI BOM_RMW BOM_R34_NE BOM_R34_SE BOM_R34_SW BOM_R34_NW BOM_R50_NE BOM_R50_SE BOM_R50_SW BOM_R50_NW BOM_R64_NE BOM_R64_SE BOM_R64_SW BOM_R64_NW BOM_ROCI BOM_POCI BOM_EYE BOM_POS_METHOD BOM_PRES_METHOD NADI_LAT NADI_LON NADI_CAT NADI_WIND NADI_PRES WELLINGTON_LAT WELLINGTON_LON WELLINGTON_WIND WELLINGTON_PRES DS824_LAT DS824_LON DS824_STAGE DS824_WIND DS824_PRES TD9636_LAT TD9636_LON TD9636_STAGE TD9636_WIND TD9636_PRES TD9635_LAT TD9635_LON TD9635_WIND TD9635_PRES TD9635_ROCI NEUMANN_LAT NEUMANN_LON NEUMANN_CLASS NEUMANN_WIND NEUMANN_PRES MLC_LAT MLC_LON MLC_CLASS MLC_WIND MLC_PRES USA_GUST BOM_GUST BOM_GUST_PER REUNION_GUST REUNION_GUST_PER USA_SEAHGT USA_SEARAD_NE USA_SEARAD_SE USA_SEARAD_SW USA_SEARAD_NW STORM_SPEED STORM_DIR
1889166N20276 1889 5 NA CS NOT_NAMED 1889-06-15 00:00:00 TS 19.8000 -83.7000 35 hurdat_atl main 201 167 O_____________ hurdat_atl AL021889 19.8000 -83.7000 TS 35 0 9 341
1889166N20276 1889 5 NA CS NOT_NAMED 1889-06-15 03:00:00 TS 20.2100 -83.8498 main 167 143 P_____________ AL021889 20.2100 -83.8498 TS 40 0 9 341
1889166N20276 1889 5 NA CS NOT_NAMED 1889-06-15 06:00:00 TS 20.6000 -84.0000 45 hurdat_atl main 143 108 O_____________ hurdat_atl AL021889 20.6000 -84.0000 TS 45 0 8 339
1889166N20276 1889 5 NA CS NOT_NAMED 1889-06-15 09:00:00 TS 20.9575 -84.1501 main 94 59 P_____________ AL021889 20.9575 -84.1501 TS 50 0 8 338
1889166N20276 1889 5 NA CS NOT_NAMED 1889-06-15 12:00:00 TS 21.3000 -84.3000 55 hurdat_atl main 59 24 O_____________ hurdat_atl AL021889 21.3000 -84.3000 TS 55 0 7 338
1889166N20276 1889 5 NA CS NOT_NAMED 1889-06-15 15:00:00 TS 21.6425 -84.4427 main 24 0 P_____________ AL021889 21.6425 -84.4427 TS 60 0 8 338
1889166N20276 1889 5 NA GM NOT_NAMED 1889-06-15 18:00:00 TS 22.0000 -84.6000 65 hurdat_atl main 11 11 O_____________ hurdat_atl AL021889 22.0000 -84.6000 HU 65 1 8 336
1889166N20276 1889 5 NA GM NOT_NAMED 1889-06-15 21:00:00 TS 22.3850 -84.7926 main 42 42 P_____________ AL021889 22.3850 -84.7926 HU 65 1 9 335
1889166N20276 1889 5 NA GM NOT_NAMED 1889-06-16 00:00:00 TS 22.8000 -85.0000 65 hurdat_atl main 83 83 O_____________ hurdat_atl AL021889 22.8000 -85.0000 HU 65 1 9 335
1889166N20276 1889 5 NA GM NOT_NAMED 1889-06-16 03:00:00 TS 23.2425 -85.2224 main 128 128 P_____________ AL021889 23.2425 -85.2224 HU 62 0 10 338
1889166N20276 1889 5 NA GM NOT_NAMED 1889-06-16 06:00:00 TS 23.7000 -85.4000 60 hurdat_atl main 181 181 O_____________ hurdat_atl AL021889 23.7000 -85.4000 TS 60 0 9 345
1889166N20276 1889 5 NA GM NOT_NAMED 1889-06-16 09:00:00 TS 24.1425 -85.4876 main 218 218 P_____________ AL021889 24.1425 -85.4876 TS 57 0 9 355
1889166N20276 1889 5 NA GM NOT_NAMED 1889-06-16 12:00:00 TS 24.6000 -85.5000 55 hurdat_atl main 261 261 O_____________ hurdat_atl AL021889 24.6000 -85.5000 TS 55 0 10 2
1889166N20276 1889 5 NA GM NOT_NAMED 1889-06-16 15:00:00 TS 25.0925 -85.4799 main 308 308 P_____________ AL021889 25.0925 -85.4799 TS 52 0 10 5
1889166N20276 1889 5 NA GM NOT_NAMED 1889-06-16 18:00:00 TS 25.6000 -85.4000 50 hurdat_atl main 336 299 O_____________ hurdat_atl AL021889 25.6000 -85.4000 TS 50 0 10 10
1889166N20276 1889 5 NA GM NOT_NAMED 1889-06-16 21:00:00 TS 26.0999 -85.2873 main 299 259 P_____________ AL021889 26.0999 -85.2873 TS 47 0 10 15
1889166N20276 1889 5 NA GM NOT_NAMED 1889-06-17 00:00:00 TS 26.6000 -85.1000 45 hurdat_atl main 259 216 O_____________ hurdat_atl AL021889 26.6000 -85.1000 TS 45 0 11 21
1889166N20276 1889 5 NA GM NOT_NAMED 1889-06-17 03:00:00 TS 27.0998 -84.8521 main 216 160 P_____________ AL021889 27.0998 -84.8521 TS 45 0 11 28
1889166N20276 1889 5 NA GM NOT_NAMED 1889-06-17 06:00:00 TS 27.6000 -84.5000 45 hurdat_atl main 160 118 O_____________ hurdat_atl AL021889 27.6000 -84.5000 TS 45 0 12 35
1889166N20276 1889 5 NA GM NOT_NAMED 1889-06-17 09:00:00 TS 28.0999 -84.0475 main 110 77 P_____________ AL021889 28.0999 -84.0475 TS 45 0 13 41
1889166N20276 1889 5 NA GM NOT_NAMED 1889-06-17 12:00:00 TS 28.6000 -83.5000 45 hurdat_atl main 77 9 O_____________ hurdat_atl AL021889 28.6000 -83.5000 TS 45 0 14 45
1889166N20276 1889 5 NA GM NOT_NAMED 1889-06-17 15:00:00 TS 29.1000 -82.9000 45 hurdat_atl main 9 0 O_____________ hurdat_atl AL021889 29.1000 -82.9000 L TS 45 0 15 49
1889166N20276 1889 5 NA NA NOT_NAMED 1889-06-17 18:00:00 TS 29.6000 -82.2000 40 hurdat_atl main 0 0 O_____________ hurdat_atl AL021889 29.6000 -82.2000 TS 40 0 16 48
1889166N20276 1889 5 NA NA NOT_NAMED 1889-06-17 21:00:00 TS 30.1461 -81.5461 main 0 0 P_____________ AL021889 30.1461 -81.5461 TS 37 0 16 46
1889166N20276 1889 5 NA NA NOT_NAMED 1889-06-18 00:00:00 TS 30.7000 -80.9000 35 hurdat_atl main 47 47 O_____________ hurdat_atl AL021889 30.7000 -80.9000 TS 35 0 16 47
1889166N20276 1889 5 NA NA NOT_NAMED 1889-06-18 03:00:00 TS 31.2074 -80.1993 main 102 101 P_____________ AL021889 31.2074 -80.1993 TS 37 0 16 50
1889166N20276 1889 5 NA NA NOT_NAMED 1889-06-18 06:00:00 TS 31.7000 -79.5000 40 hurdat_atl main 110 100 O_____________ hurdat_atl AL021889 31.7000 -79.5000 TS 40 0 15 49
1889166N20276 1889 5 NA NA NOT_NAMED 1889-06-18 09:00:00 TS 32.1997 -78.8343 main 105 96 P_____________ AL021889 32.1997 -78.8343 TS 40 0 15 48
1889166N20276 1889 5 NA NA NOT_NAMED 1889-06-18 12:00:00 TS 32.7000 -78.2000 40 hurdat_atl main 108 82 O_____________ hurdat_atl AL021889 32.7000 -78.2000 TS 40 0 15 46
1889166N20276 1889 5 NA NA NOT_NAMED 1889-06-18 15:00:00 TS 33.2147 -77.5846 main 86 78 P_____________ AL021889 33.2147 -77.5846 TS 42 0 14 45
1889166N20276 1889 5 NA NA NOT_NAMED 1889-06-18 18:00:00 TS 33.7000 -77.0000 45 hurdat_atl main 92 66 O_____________ hurdat_atl AL021889 33.7000 -77.0000 TS 45 0 13 47
1889166N20276 1889 5 NA NA NOT_NAMED 1889-06-18 21:00:00 TS 34.1070 -76.4488 main 67 49 P_____________ AL021889 34.1070 -76.4488 TS 45 0 12 49
1889166N20276 1889 5 NA NA NOT_NAMED 1889-06-19 00:00:00 TS 34.5000 -75.9000 45 hurdat_atl main 57 56 O_____________ hurdat_atl AL021889 34.5000 -75.9000 TS 45 0 13 48
1889166N20276 1889 5 NA NA NOT_NAMED 1889-06-19 03:00:00 TS 34.9422 -75.3145 main 86 76 P_____________ AL021889 34.9422 -75.3145 TS 45 0 13 48
1889166N20276 1889 5 NA NA NOT_NAMED 1889-06-19 06:00:00 TS 35.4000 -74.7000 45 hurdat_atl main 84 84 O_____________ hurdat_atl AL021889 35.4000 -74.7000 TS 45 0 13 48
1889166N20276 1889 5 NA NA NOT_NAMED 1889-06-19 09:00:00 TS 35.8416 -74.0935 main 125 125 P_____________ AL021889 35.8416 -74.0935 TS 45 0 14 49
1889166N20276 1889 5 NA NA NOT_NAMED 1889-06-19 12:00:00 TS 36.3000 -73.4000 45 hurdat_atl main 196 196 O_____________ hurdat_atl AL021889 36.3000 -73.4000 TS 45 0 16 53
1889166N20276 1889 5 NA NA NOT_NAMED 1889-06-19 15:00:00 TS 36.7844 -72.5663 main 276 276 P_____________ AL021889 36.7844 -72.5663 TS 45 0 18 55
1889166N20276 1889 5 NA NA NOT_NAMED 1889-06-19 18:00:00 TS 37.3000 -71.6000 45 hurdat_atl main 326 326 O_____________ hurdat_atl AL021889 37.3000 -71.6000 TS 45 0 19 57
1889166N20276 1889 5 NA NA NOT_NAMED 1889-06-19 21:00:00 TS 37.8264 -70.5577 main 372 359 P_____________ AL021889 37.8264 -70.5577 TS 45 0 21 58
1889166N20276 1889 5 NA NA NOT_NAMED 1889-06-20 00:00:00 TS 38.4000 -69.4000 45 hurdat_atl main 362 332 O_____________ hurdat_atl AL021889 38.4000 -69.4000 TS 45 0 22 57
1889166N20276 1889 5 NA NA NOT_NAMED 1889-06-20 03:00:00 TS 39.0341 -68.1436 main 340 329 P_____________ AL021889 39.0341 -68.1436 TS 45 0 24 57
1889166N20276 1889 5 NA NA NOT_NAMED 1889-06-20 06:00:00 TS 39.7000 -66.8000 45 hurdat_atl main 349 349 O_____________ hurdat_atl AL021889 39.7000 -66.8000 TS 45 0 25 58
1889166N20276 1889 5 NA NA NOT_NAMED 1889-06-20 09:00:00 TS 40.3339 -65.4117 main 356 294 P_____________ AL021889 40.3339 -65.4117 TS 42 0 25 59
1889166N20276 1889 5 NA NA NOT_NAMED 1889-06-20 12:00:00 TS 41.0000 -64.0000 40 hurdat_atl main 297 285 O_____________ hurdat_atl AL021889 41.0000 -64.0000 TS 40 0 25 57
1889166N20276 1889 5 NA NA NOT_NAMED 1889-06-20 15:00:00 TS 41.7330 -62.6023 main 294 272 P_____________ AL021889 41.7330 -62.6023 TS 37 0 26 54
1889166N20276 1889 5 NA NA NOT_NAMED 1889-06-20 18:00:00 TS 42.5000 -61.2000 35 hurdat_atl main 276 O_____________ hurdat_atl AL021889 42.5000 -61.2000 TS 35 0 26 53

IBTrACS Databaseについて

本データベースは、米国NOAAが公開する1842年以降の世界の熱帯低気圧のベストトラックデータアーカイブInternational Best Track Archive for Climate Stewardship (IBTrACS)を、ウェブで閲覧しやすい形式に変換したものです。

最終更新日:2021-10-08